sensor_id;sensor_type;location;lat;lon;timestamp;temperature;humidity
23597;DHT22;40226;50.874;4.394;2022-09-09T00:04:32;15.50;99.90
23597;DHT22;40226;50.874;4.394;2022-09-09T00:09:34;15.70;99.90
23597;DHT22;40226;50.874;4.394;2022-09-09T00:12:17;15.50;99.90
23597;DHT22;40226;50.874;4.394;2022-09-09T00:21:07;15.30;99.90
23597;DHT22;40226;50.874;4.394;2022-09-09T00:23:45;15.20;99.90
23597;DHT22;40226;50.874;4.394;2022-09-09T00:26:23;15.10;99.90
23597;DHT22;40226;50.874;4.394;2022-09-09T00:29:13;15.10;99.90
23597;DHT22;40226;50.874;4.394;2022-09-09T00:31:41;15.00;99.90
23597;DHT22;40226;50.874;4.394;2022-09-09T00:34:13;15.00;99.90
23597;DHT22;40226;50.874;4.394;2022-09-09T00:36:40;14.90;99.90
23597;DHT22;40226;50.874;4.394;2022-09-09T00:39:26;15.00;99.90
23597;DHT22;40226;50.874;4.394;2022-09-09T00:44:33;15.20;99.90
23597;DHT22;40226;50.874;4.394;2022-09-09T00:57:52;15.20;99.90
23597;DHT22;40226;50.874;4.394;2022-09-09T01:00:35;15.20;99.90
23597;DHT22;40226;50.874;4.394;2022-09-09T01:06:11;15.20;99.90
23597;DHT22;40226;50.874;4.394;2022-09-09T01:11:27;15.30;99.90
23597;DHT22;40226;50.874;4.394;2022-09-09T01:16:43;15.40;99.90
23597;DHT22;40226;50.874;4.394;2022-09-09T01:19:18;15.40;99.90
23597;DHT22;40226;50.874;4.394;2022-09-09T01:21:48;15.40;99.90
23597;DHT22;40226;50.874;4.394;2022-09-09T01:24:31;15.50;99.90
23597;DHT22;40226;50.874;4.394;2022-09-09T01:27:02;15.50;99.90
23597;DHT22;40226;50.874;4.394;2022-09-09T01:29:29;15.50;99.90
23597;DHT22;40226;50.874;4.394;2022-09-09T01:32:00;15.60;99.90
23597;DHT22;40226;50.874;4.394;2022-09-09T01:34:33;15.60;99.90
23597;DHT22;40226;50.874;4.394;2022-09-09T01:37:06;15.60;99.90
23597;DHT22;40226;50.874;4.394;2022-09-09T01:39:37;15.50;99.90
23597;DHT22;40226;50.874;4.394;2022-09-09T01:42:05;15.50;99.90
23597;DHT22;40226;50.874;4.394;2022-09-09T01:44:32;15.50;99.90
23597;DHT22;40226;50.874;4.394;2022-09-09T01:46:58;15.50;99.90
23597;DHT22;40226;50.874;4.394;2022-09-09T01:49:24;15.50;99.90
23597;DHT22;40226;50.874;4.394;2022-09-09T01:51:52;15.40;99.90
23597;DHT22;40226;50.874;4.394;2022-09-09T01:54:20;15.40;99.90
23597;DHT22;40226;50.874;4.394;2022-09-09T01:57:02;15.40;99.90
23597;DHT22;40226;50.874;4.394;2022-09-09T01:59:54;15.30;99.90
23597;DHT22;40226;50.874;4.394;2022-09-09T02:05:58;15.30;99.90
23597;DHT22;40226;50.874;4.394;2022-09-09T02:08:47;15.50;99.90
23597;DHT22;40226;50.874;4.394;2022-09-09T02:11:19;15.40;99.90
23597;DHT22;40226;50.874;4.394;2022-09-09T02:13:51;15.40;99.90
23597;DHT22;40226;50.874;4.394;2022-09-09T02:19:00;15.40;99.90
23597;DHT22;40226;50.874;4.394;2022-09-09T02:21:29;15.40;99.90
23597;DHT22;40226;50.874;4.394;2022-09-09T02:23:57;15.40;99.90
23597;DHT22;40226;50.874;4.394;2022-09-09T02:26:24;15.40;99.90
23597;DHT22;40226;50.874;4.394;2022-09-09T02:28:53;15.40;99.90
23597;DHT22;40226;50.874;4.394;2022-09-09T02:31:21;15.40;99.90
23597;DHT22;40226;50.874;4.394;2022-09-09T02:33:59;15.40;99.90
23597;DHT22;40226;50.874;4.394;2022-09-09T02:36:28;15.50;99.90
23597;DHT22;40226;50.874;4.394;2022-09-09T02:38:55;15.40;99.90
23597;DHT22;40226;50.874;4.394;2022-09-09T02:41:26;15.40;99.90
23597;DHT22;40226;50.874;4.394;2022-09-09T02:43:53;15.50;99.90
23597;DHT22;40226;50.874;4.394;2022-09-09T02:52:01;15.40;99.90
23597;DHT22;40226;50.874;4.394;2022-09-09T02:54:28;15.40;99.90
23597;DHT22;40226;50.874;4.394;2022-09-09T02:59:33;15.40;99.90
23597;DHT22;40226;50.874;4.394;2022-09-09T03:01:59;15.40;99.90
23597;DHT22;40226;50.874;4.394;2022-09-09T03:04:25;15.40;99.90
23597;DHT22;40226;50.874;4.394;2022-09-09T03:06:51;15.40;99.90
23597;DHT22;40226;50.874;4.394;2022-09-09T03:09:16;15.40;99.90
23597;DHT22;40226;50.874;4.394;2022-09-09T03:11:42;15.40;99.90
23597;DHT22;40226;50.874;4.394;2022-09-09T03:14:07;15.30;99.90
23597;DHT22;40226;50.874;4.394;2022-09-09T03:16:33;15.40;99.90
23597;DHT22;40226;50.874;4.394;2022-09-09T03:19:00;15.40;99.90
23597;DHT22;40226;50.874;4.394;2022-09-09T03:21:26;15.40;99.90
23597;DHT22;40226;50.874;4.394;2022-09-09T03:23:51;15.40;99.90
23597;DHT22;40226;50.874;4.394;2022-09-09T03:26:17;15.40;99.90
23597;DHT22;40226;50.874;4.394;2022-09-09T03:28:43;15.40;99.90
23597;DHT22;40226;50.874;4.394;2022-09-09T03:31:10;15.40;99.90
23597;DHT22;40226;50.874;4.394;2022-09-09T03:33:39;15.40;99.90
23597;DHT22;40226;50.874;4.394;2022-09-09T03:36:06;15.30;99.90
23597;DHT22;40226;50.874;4.394;2022-09-09T03:38:33;15.40;99.90
23597;DHT22;40226;50.874;4.394;2022-09-09T03:41:00;15.30;99.90
23597;DHT22;40226;50.874;4.394;2022-09-09T03:43:27;15.40;99.90
23597;DHT22;40226;50.874;4.394;2022-09-09T03:45:54;15.30;99.90
23597;DHT22;40226;50.874;4.394;2022-09-09T03:48:23;15.40;99.90
23597;DHT22;40226;50.874;4.394;2022-09-09T03:50:51;15.40;99.90
23597;DHT22;40226;50.874;4.394;2022-09-09T03:53:20;15.40;99.90
23597;DHT22;40226;50.874;4.394;2022-09-09T03:55:48;15.30;99.90
23597;DHT22;40226;50.874;4.394;2022-09-09T03:58:15;15.40;99.90
23597;DHT22;40226;50.874;4.394;2022-09-09T04:00:41;15.40;99.90
23597;DHT22;40226;50.874;4.394;2022-09-09T04:03:10;15.40;99.90
23597;DHT22;40226;50.874;4.394;2022-09-09T04:05:36;15.40;99.90
23597;DHT22;40226;50.874;4.394;2022-09-09T04:08:05;15.40;99.90
23597;DHT22;40226;50.874;4.394;2022-09-09T04:10:31;15.50;99.90
23597;DHT22;40226;50.874;4.394;2022-09-09T04:12:56;15.40;99.90
23597;DHT22;40226;50.874;4.394;2022-09-09T04:15:22;15.50;99.90
23597;DHT22;40226;50.874;4.394;2022-09-09T04:17:48;15.50;99.90
23597;DHT22;40226;50.874;4.394;2022-09-09T04:20:13;15.50;99.90
23597;DHT22;40226;50.874;4.394;2022-09-09T04:22:39;15.50;99.90
23597;DHT22;40226;50.874;4.394;2022-09-09T04:25:05;15.50;99.90
23597;DHT22;40226;50.874;4.394;2022-09-09T04:27:31;15.50;99.90
23597;DHT22;40226;50.874;4.394;2022-09-09T04:29:57;15.50;99.90
23597;DHT22;40226;50.874;4.394;2022-09-09T04:32:23;15.40;99.90
23597;DHT22;40226;50.874;4.394;2022-09-09T04:34:51;15.50;99.90
23597;DHT22;40226;50.874;4.394;2022-09-09T04:37:17;15.50;99.90
23597;DHT22;40226;50.874;4.394;2022-09-09T04:39:42;15.40;99.90
23597;DHT22;40226;50.874;4.394;2022-09-09T04:42:08;15.40;99.90
23597;DHT22;40226;50.874;4.394;2022-09-09T04:44:33;15.30;99.90
23597;DHT22;40226;50.874;4.394;2022-09-09T04:46:59;15.40;99.90
23597;DHT22;40226;50.874;4.394;2022-09-09T04:49:24;15.40;99.90
23597;DHT22;40226;50.874;4.394;2022-09-09T04:51:51;15.40;99.90
23597;DHT22;40226;50.874;4.394;2022-09-09T04:54:17;15.40;99.90
23597;DHT22;40226;50.874;4.394;2022-09-09T04:56:43;15.40;99.90
23597;DHT22;40226;50.874;4.394;2022-09-09T04:59:08;15.30;99.90
23597;DHT22;40226;50.874;4.394;2022-09-09T05:01:35;15.30;99.90
23597;DHT22;40226;50.874;4.394;2022-09-09T05:04:01;15.40;99.90
23597;DHT22;40226;50.874;4.394;2022-09-09T05:06:28;15.40;99.90
23597;DHT22;40226;50.874;4.394;2022-09-09T05:08:54;15.40;99.90
23597;DHT22;40226;50.874;4.394;2022-09-09T05:11:25;15.50;99.90
23597;DHT22;40226;50.874;4.394;2022-09-09T05:13:51;15.50;99.90
23597;DHT22;40226;50.874;4.394;2022-09-09T05:16:17;15.50;99.90
23597;DHT22;40226;50.874;4.394;2022-09-09T05:18:44;15.50;99.90
23597;DHT22;40226;50.874;4.394;2022-09-09T05:21:10;15.50;99.90
23597;DHT22;40226;50.874;4.394;2022-09-09T05:23:36;15.60;99.90
23597;DHT22;40226;50.874;4.394;2022-09-09T05:26:03;15.50;99.90
23597;DHT22;40226;50.874;4.394;2022-09-09T05:28:29;15.60;99.90
23597;DHT22;40226;50.874;4.394;2022-09-09T05:31:06;15.60;99.90
23597;DHT22;40226;50.874;4.394;2022-09-09T05:33:36;15.60;99.90
23597;DHT22;40226;50.874;4.394;2022-09-09T05:36:05;15.60;99.90
23597;DHT22;40226;50.874;4.394;2022-09-09T05:38:41;15.70;99.90
23597;DHT22;40226;50.874;4.394;2022-09-09T05:41:08;15.70;99.90
23597;DHT22;40226;50.874;4.394;2022-09-09T05:43:35;15.70;99.90
23597;DHT22;40226;50.874;4.394;2022-09-09T05:48:31;15.60;99.90
23597;DHT22;40226;50.874;4.394;2022-09-09T05:50:57;15.60;99.90
23597;DHT22;40226;50.874;4.394;2022-09-09T05:53:23;15.60;99.90
23597;DHT22;40226;50.874;4.394;2022-09-09T05:55:49;15.60;99.90
23597;DHT22;40226;50.874;4.394;2022-09-09T05:58:15;15.60;99.90
23597;DHT22;40226;50.874;4.394;2022-09-09T06:00:42;15.60;99.90
23597;DHT22;40226;50.874;4.394;2022-09-09T06:03:11;15.50;99.90
23597;DHT22;40226;50.874;4.394;2022-09-09T06:05:36;15.50;99.90
23597;DHT22;40226;50.874;4.394;2022-09-09T06:08:03;15.50;99.90
23597;DHT22;40226;50.874;4.394;2022-09-09T06:10:28;15.50;99.90
23597;DHT22;40226;50.874;4.394;2022-09-09T06:12:54;15.60;99.90
23597;DHT22;40226;50.874;4.394;2022-09-09T06:15:20;15.60;99.90
23597;DHT22;40226;50.874;4.394;2022-09-09T06:17:45;15.70;99.90
23597;DHT22;40226;50.874;4.394;2022-09-09T06:20:11;15.80;99.90
23597;DHT22;40226;50.874;4.394;2022-09-09T06:22:39;16.00;99.90
23597;DHT22;40226;50.874;4.394;2022-09-09T06:25:07;16.00;99.90
23597;DHT22;40226;50.874;4.394;2022-09-09T06:27:33;16.10;99.90
23597;DHT22;40226;50.874;4.394;2022-09-09T06:29:58;16.10;99.90
23597;DHT22;40226;50.874;4.394;2022-09-09T06:32:24;16.10;99.90
23597;DHT22;40226;50.874;4.394;2022-09-09T06:34:50;16.10;99.90
23597;DHT22;40226;50.874;4.394;2022-09-09T06:37:15;16.20;99.90
23597;DHT22;40226;50.874;4.394;2022-09-09T06:39:41;16.20;99.90
23597;DHT22;40226;50.874;4.394;2022-09-09T06:42:07;16.10;99.90
23597;DHT22;40226;50.874;4.394;2022-09-09T06:44:34;16.10;99.90
23597;DHT22;40226;50.874;4.394;2022-09-09T06:46:59;16.30;99.90
23597;DHT22;40226;50.874;4.394;2022-09-09T06:49:25;16.30;99.90
23597;DHT22;40226;50.874;4.394;2022-09-09T06:51:50;16.30;99.90
23597;DHT22;40226;50.874;4.394;2022-09-09T06:54:17;16.30;99.90
23597;DHT22;40226;50.874;4.394;2022-09-09T06:56:43;16.30;99.90
23597;DHT22;40226;50.874;4.394;2022-09-09T06:59:11;16.30;99.90
23597;DHT22;40226;50.874;4.394;2022-09-09T07:01:42;16.40;99.90
23597;DHT22;40226;50.874;4.394;2022-09-09T07:04:14;16.50;99.90
23597;DHT22;40226;50.874;4.394;2022-09-09T07:06:42;16.50;99.90
23597;DHT22;40226;50.874;4.394;2022-09-09T07:09:10;16.60;99.90
23597;DHT22;40226;50.874;4.394;2022-09-09T07:11:44;16.50;99.90
23597;DHT22;40226;50.874;4.394;2022-09-09T07:14:11;16.70;99.90
23597;DHT22;40226;50.874;4.394;2022-09-09T07:16:43;16.70;99.90
23597;DHT22;40226;50.874;4.394;2022-09-09T07:19:10;16.70;99.90
23597;DHT22;40226;50.874;4.394;2022-09-09T07:21:36;16.60;99.90
23597;DHT22;40226;50.874;4.394;2022-09-09T07:24:02;16.70;99.90
23597;DHT22;40226;50.874;4.394;2022-09-09T07:26:30;16.80;99.90
23597;DHT22;40226;50.874;4.394;2022-09-09T07:28:56;16.90;99.90
23597;DHT22;40226;50.874;4.394;2022-09-09T07:31:28;17.00;99.90
23597;DHT22;40226;50.874;4.394;2022-09-09T07:33:56;16.80;99.90
23597;DHT22;40226;50.874;4.394;2022-09-09T07:36:24;16.80;99.90
23597;DHT22;40226;50.874;4.394;2022-09-09T07:38:53;16.80;99.90
23597;DHT22;40226;50.874;4.394;2022-09-09T07:41:21;16.70;99.90
23597;DHT22;40226;50.874;4.394;2022-09-09T07:43:48;16.70;99.90
23597;DHT22;40226;50.874;4.394;2022-09-09T07:46:17;16.70;99.90
23597;DHT22;40226;50.874;4.394;2022-09-09T07:48:48;16.60;99.90
23597;DHT22;40226;50.874;4.394;2022-09-09T07:51:19;16.50;99.90
23597;DHT22;40226;50.874;4.394;2022-09-09T07:53:50;16.40;99.90
23597;DHT22;40226;50.874;4.394;2022-09-09T07:56:17;16.50;99.90
23597;DHT22;40226;50.874;4.394;2022-09-09T07:58:45;16.50;99.90
23597;DHT22;40226;50.874;4.394;2022-09-09T08:01:41;16.50;99.90
23597;DHT22;40226;50.874;4.394;2022-09-09T08:04:13;16.50;99.90
23597;DHT22;40226;50.874;4.394;2022-09-09T08:06:42;16.60;99.90
23597;DHT22;40226;50.874;4.394;2022-09-09T08:09:08;16.70;99.90
23597;DHT22;40226;50.874;4.394;2022-09-09T08:11:34;16.90;99.90
23597;DHT22;40226;50.874;4.394;2022-09-09T08:14:02;16.90;99.90
23597;DHT22;40226;50.874;4.394;2022-09-09T08:16:33;16.90;99.90
23597;DHT22;40226;50.874;4.394;2022-09-09T08:18:59;17.10;99.90
23597;DHT22;40226;50.874;4.394;2022-09-09T08:21:29;17.20;99.90
23597;DHT22;40226;50.874;4.394;2022-09-09T08:23:58;17.40;99.90
23597;DHT22;40226;50.874;4.394;2022-09-09T08:26:32;17.40;99.90
23597;DHT22;40226;50.874;4.394;2022-09-09T08:29:00;17.40;99.90
23597;DHT22;40226;50.874;4.394;2022-09-09T08:31:36;17.40;99.90
23597;DHT22;40226;50.874;4.394;2022-09-09T08:34:03;17.30;99.90
23597;DHT22;40226;50.874;4.394;2022-09-09T08:36:30;17.30;99.90
23597;DHT22;40226;50.874;4.394;2022-09-09T08:38:59;17.40;99.90
23597;DHT22;40226;50.874;4.394;2022-09-09T08:52:39;17.00;99.90
23597;DHT22;40226;50.874;4.394;2022-09-09T08:57:38;16.60;99.90
23597;DHT22;40226;50.874;4.394;2022-09-09T09:00:07;16.60;99.90
23597;DHT22;40226;50.874;4.394;2022-09-09T09:02:54;16.60;99.90
23597;DHT22;40226;50.874;4.394;2022-09-09T09:05:37;16.70;99.90
23597;DHT22;40226;50.874;4.394;2022-09-09T09:08:25;16.70;99.90
23597;DHT22;40226;50.874;4.394;2022-09-09T09:10:54;16.70;99.90
23597;DHT22;40226;50.874;4.394;2022-09-09T09:18:58;16.70;99.90
23597;DHT22;40226;50.874;4.394;2022-09-09T09:21:39;16.80;99.90
23597;DHT22;40226;50.874;4.394;2022-09-09T09:24:25;16.80;99.90
23597;DHT22;40226;50.874;4.394;2022-09-09T09:26:52;16.80;99.90
23597;DHT22;40226;50.874;4.394;2022-09-09T09:29:19;16.70;99.90
23597;DHT22;40226;50.874;4.394;2022-09-09T09:31:55;16.70;99.90
23597;DHT22;40226;50.874;4.394;2022-09-09T09:34:22;16.70;99.90
23597;DHT22;40226;50.874;4.394;2022-09-09T09:39:33;16.70;99.90
23597;DHT22;40226;50.874;4.394;2022-09-09T09:42:14;16.60;99.90
23597;DHT22;40226;50.874;4.394;2022-09-09T09:44:41;16.40;99.90
23597;DHT22;40226;50.874;4.394;2022-09-09T09:47:18;16.40;99.90
23597;DHT22;40226;50.874;4.394;2022-09-09T09:49:58;16.30;99.90
23597;DHT22;40226;50.874;4.394;2022-09-09T09:52:27;16.30;99.90
23597;DHT22;40226;50.874;4.394;2022-09-09T09:54:54;16.40;99.90
23597;DHT22;40226;50.874;4.394;2022-09-09T09:57:31;16.40;99.90
23597;DHT22;40226;50.874;4.394;2022-09-09T10:00:04;16.50;99.90
23597;DHT22;40226;50.874;4.394;2022-09-09T10:02:40;16.50;99.90
23597;DHT22;40226;50.874;4.394;2022-09-09T10:05:24;16.60;99.90
23597;DHT22;40226;50.874;4.394;2022-09-09T10:08:01;16.60;99.90
23597;DHT22;40226;50.874;4.394;2022-09-09T10:13:18;16.60;99.90
23597;DHT22;40226;50.874;4.394;2022-09-09T10:16:06;16.80;99.90
23597;DHT22;40226;50.874;4.394;2022-09-09T10:18:47;16.70;99.90
23597;DHT22;40226;50.874;4.394;2022-09-09T10:57:03;18.60;99.90
23597;DHT22;40226;50.874;4.394;2022-09-09T10:59:45;18.70;99.90
23597;DHT22;40226;50.874;4.394;2022-09-09T11:02:17;19.10;99.90
23597;DHT22;40226;50.874;4.394;2022-09-09T11:07:13;18.90;99.90
23597;DHT22;40226;50.874;4.394;2022-09-09T11:09:47;19.00;99.90
23597;DHT22;40226;50.874;4.394;2022-09-09T11:12:18;18.90;99.90
23597;DHT22;40226;50.874;4.394;2022-09-09T11:14:46;18.90;99.90
23597;DHT22;40226;50.874;4.394;2022-09-09T11:17:40;18.90;99.90
23597;DHT22;40226;50.874;4.394;2022-09-09T11:20:11;18.60;99.90
23597;DHT22;40226;50.874;4.394;2022-09-09T11:22:43;18.70;99.90
23597;DHT22;40226;50.874;4.394;2022-09-09T11:30:48;19.00;99.90
23597;DHT22;40226;50.874;4.394;2022-09-09T11:33:55;18.70;99.90
23597;DHT22;40226;50.874;4.394;2022-09-09T11:44:37;18.50;99.90
23597;DHT22;40226;50.874;4.394;2022-09-09T11:47:03;18.40;99.90
23597;DHT22;40226;50.874;4.394;2022-09-09T11:49:40;18.40;99.90
23597;DHT22;40226;50.874;4.394;2022-09-09T11:52:20;18.40;99.90
23597;DHT22;40226;50.874;4.394;2022-09-09T11:54:48;18.60;99.90
23597;DHT22;40226;50.874;4.394;2022-09-09T11:59:52;18.80;99.90
23597;DHT22;40226;50.874;4.394;2022-09-09T12:02:23;18.50;99.90
23597;DHT22;40226;50.874;4.394;2022-09-09T12:07:35;18.30;99.90
23597;DHT22;40226;50.874;4.394;2022-09-09T12:10:19;18.30;99.90
23597;DHT22;40226;50.874;4.394;2022-09-09T12:12:46;18.20;99.90
23597;DHT22;40226;50.874;4.394;2022-09-09T12:17:45;18.40;99.90
23597;DHT22;40226;50.874;4.394;2022-09-09T12:20:22;18.50;99.90
23597;DHT22;40226;50.874;4.394;2022-09-09T12:23:18;18.40;99.90
23597;DHT22;40226;50.874;4.394;2022-09-09T12:25:49;18.30;99.90
23597;DHT22;40226;50.874;4.394;2022-09-09T12:28:33;18.20;99.90
23597;DHT22;40226;50.874;4.394;2022-09-09T12:34:40;18.60;99.90
23597;DHT22;40226;50.874;4.394;2022-09-09T12:37:18;19.00;99.90
23597;DHT22;40226;50.874;4.394;2022-09-09T12:39:57;18.80;99.90
23597;DHT22;40226;50.874;4.394;2022-09-09T12:42:25;18.90;99.90
23597;DHT22;40226;50.874;4.394;2022-09-09T12:44:58;19.00;99.90
23597;DHT22;40226;50.874;4.394;2022-09-09T12:47:37;19.20;99.90
23597;DHT22;40226;50.874;4.394;2022-09-09T12:50:19;19.60;99.90
23597;DHT22;40226;50.874;4.394;2022-09-09T12:52:49;19.90;99.90
23597;DHT22;40226;50.874;4.394;2022-09-09T12:55:20;19.80;99.50
23597;DHT22;40226;50.874;4.394;2022-09-09T12:57:47;19.80;99.90
23597;DHT22;40226;50.874;4.394;2022-09-09T13:00:18;19.50;99.90
23597;DHT22;40226;50.874;4.394;2022-09-09T13:02:53;19.60;99.90
23597;DHT22;40226;50.874;4.394;2022-09-09T13:07:50;20.10;94.20
23597;DHT22;40226;50.874;4.394;2022-09-09T13:10:23;20.30;92.50
23597;DHT22;40226;50.874;4.394;2022-09-09T13:12:50;20.30;93.40
23597;DHT22;40226;50.874;4.394;2022-09-09T13:15:23;20.00;94.20
23597;DHT22;40226;50.874;4.394;2022-09-09T13:17:51;19.70;98.30
23597;DHT22;40226;50.874;4.394;2022-09-09T13:20:19;20.50;93.40
23597;DHT22;40226;50.874;4.394;2022-09-09T13:22:48;20.70;84.10
23597;DHT22;40226;50.874;4.394;2022-09-09T13:28:03;20.40;92.20
23597;DHT22;40226;50.874;4.394;2022-09-09T13:36:09;20.10;94.60
23597;DHT22;40226;50.874;4.394;2022-09-09T13:38:58;20.40;92.90
23597;DHT22;40226;50.874;4.394;2022-09-09T13:41:35;20.60;90.30
23597;DHT22;40226;50.874;4.394;2022-09-09T13:44:03;20.50;88.60
23597;DHT22;40226;50.874;4.394;2022-09-09T13:46:39;20.20;90.20
23597;DHT22;40226;50.874;4.394;2022-09-09T13:51:46;20.20;92.80
23597;DHT22;40226;50.874;4.394;2022-09-09T13:54:16;20.60;88.10
23597;DHT22;40226;50.874;4.394;2022-09-09T13:56:43;21.20;70.80
23597;DHT22;40226;50.874;4.394;2022-09-09T13:59:12;21.00;64.60
23597;DHT22;40226;50.874;4.394;2022-09-09T14:01:38;20.60;71.90
23597;DHT22;40226;50.874;4.394;2022-09-09T14:04:04;20.30;83.60
23597;DHT22;40226;50.874;4.394;2022-09-09T14:06:32;20.30;76.10
23597;DHT22;40226;50.874;4.394;2022-09-09T14:09:00;20.30;83.40
23597;DHT22;40226;50.874;4.394;2022-09-09T14:11:26;20.40;79.10
23597;DHT22;40226;50.874;4.394;2022-09-09T14:13:51;20.70;72.90
23597;DHT22;40226;50.874;4.394;2022-09-09T14:16:17;21.00;68.80
23597;DHT22;40226;50.874;4.394;2022-09-09T14:18:46;20.60;78.50
23597;DHT22;40226;50.874;4.394;2022-09-09T14:21:12;20.60;83.80
23597;DHT22;40226;50.874;4.394;2022-09-09T14:23:38;20.60;81.20
23597;DHT22;40226;50.874;4.394;2022-09-09T14:26:05;20.60;83.00
23597;DHT22;40226;50.874;4.394;2022-09-09T14:28:31;20.40;85.60
23597;DHT22;40226;50.874;4.394;2022-09-09T14:31:03;20.40;91.20
23597;DHT22;40226;50.874;4.394;2022-09-09T14:33:29;20.30;90.00
23597;DHT22;40226;50.874;4.394;2022-09-09T14:35:57;20.20;92.00
23597;DHT22;40226;50.874;4.394;2022-09-09T14:38:23;20.20;93.50
23597;DHT22;40226;50.874;4.394;2022-09-09T14:40:48;20.50;90.10
23597;DHT22;40226;50.874;4.394;2022-09-09T14:43:14;20.90;81.70
23597;DHT22;40226;50.874;4.394;2022-09-09T14:45:40;20.90;76.40
23597;DHT22;40226;50.874;4.394;2022-09-09T14:48:05;20.60;84.30
23597;DHT22;40226;50.874;4.394;2022-09-09T14:50:31;20.90;82.30
23597;DHT22;40226;50.874;4.394;2022-09-09T14:52:57;21.10;68.70
23597;DHT22;40226;50.874;4.394;2022-09-09T14:55:22;21.40;66.00
23597;DHT22;40226;50.874;4.394;2022-09-09T14:57:48;21.90;52.90
23597;DHT22;40226;50.874;4.394;2022-09-09T15:00:14;22.70;26.10
23597;DHT22;40226;50.874;4.394;2022-09-09T15:02:41;23.30;1.00
23597;DHT22;40226;50.874;4.394;2022-09-09T15:05:06;23.30;1.00
23597;DHT22;40226;50.874;4.394;2022-09-09T15:07:33;22.60;1.00
23597;DHT22;40226;50.874;4.394;2022-09-09T15:09:59;22.30;6.50
23597;DHT22;40226;50.874;4.394;2022-09-09T15:12:24;22.20;8.10
23597;DHT22;40226;50.874;4.394;2022-09-09T15:14:50;21.70;26.20
23597;DHT22;40226;50.874;4.394;2022-09-09T15:17:16;21.40;42.80
23597;DHT22;40226;50.874;4.394;2022-09-09T15:19:42;21.20;42.90
23597;DHT22;40226;50.874;4.394;2022-09-09T15:22:08;21.10;51.30
23597;DHT22;40226;50.874;4.394;2022-09-09T15:24:34;20.80;57.90
23597;DHT22;40226;50.874;4.394;2022-09-09T15:27:01;21.10;54.40
23597;DHT22;40226;50.874;4.394;2022-09-09T15:29:27;21.20;46.30
23597;DHT22;40226;50.874;4.394;2022-09-09T15:31:56;21.20;48.70
23597;DHT22;40226;50.874;4.394;2022-09-09T15:34:22;21.10;51.00
23597;DHT22;40226;50.874;4.394;2022-09-09T15:36:48;20.80;58.30
23597;DHT22;40226;50.874;4.394;2022-09-09T15:39:16;20.50;67.90
23597;DHT22;40226;50.874;4.394;2022-09-09T15:41:43;20.40;67.50
23597;DHT22;40226;50.874;4.394;2022-09-09T15:44:11;20.30;72.20
23597;DHT22;40226;50.874;4.394;2022-09-09T15:46:43;20.30;75.30
23597;DHT22;40226;50.874;4.394;2022-09-09T15:49:16;20.30;71.00
23597;DHT22;40226;50.874;4.394;2022-09-09T15:51:45;20.40;72.90
23597;DHT22;40226;50.874;4.394;2022-09-09T15:54:14;20.40;72.20
23597;DHT22;40226;50.874;4.394;2022-09-09T15:56:42;20.30;64.50
23597;DHT22;40226;50.874;4.394;2022-09-09T15:59:08;20.40;69.70
23597;DHT22;40226;50.874;4.394;2022-09-09T16:01:34;20.50;64.30
23597;DHT22;40226;50.874;4.394;2022-09-09T16:04:00;20.50;68.10
23597;DHT22;40226;50.874;4.394;2022-09-09T16:06:27;20.70;63.30
23597;DHT22;40226;50.874;4.394;2022-09-09T16:08:55;20.70;67.10
23597;DHT22;40226;50.874;4.394;2022-09-09T16:11:26;20.60;73.40
23597;DHT22;40226;50.874;4.394;2022-09-09T16:13:53;20.60;75.50
23597;DHT22;40226;50.874;4.394;2022-09-09T16:16:23;20.30;81.50
23597;DHT22;40226;50.874;4.394;2022-09-09T16:18:52;20.10;87.90
23597;DHT22;40226;50.874;4.394;2022-09-09T16:21:19;20.00;90.90
23597;DHT22;40226;50.874;4.394;2022-09-09T16:23:45;20.00;92.10
23597;DHT22;40226;50.874;4.394;2022-09-09T16:26:12;20.00;92.90
23597;DHT22;40226;50.874;4.394;2022-09-09T16:28:38;19.90;90.70
23597;DHT22;40226;50.874;4.394;2022-09-09T16:31:09;19.80;92.10
23597;DHT22;40226;50.874;4.394;2022-09-09T16:33:36;19.60;98.80
23597;DHT22;40226;50.874;4.394;2022-09-09T16:36:10;19.50;99.90
23597;DHT22;40226;50.874;4.394;2022-09-09T16:38:37;19.20;99.90
23597;DHT22;40226;50.874;4.394;2022-09-09T16:41:04;19.20;99.90
23597;DHT22;40226;50.874;4.394;2022-09-09T16:43:35;19.00;99.90
23597;DHT22;40226;50.874;4.394;2022-09-09T16:46:02;18.90;99.90
23597;DHT22;40226;50.874;4.394;2022-09-09T16:48:31;18.80;99.90
23597;DHT22;40226;50.874;4.394;2022-09-09T16:51:07;18.90;99.90
23597;DHT22;40226;50.874;4.394;2022-09-09T16:53:33;19.00;99.90
23597;DHT22;40226;50.874;4.394;2022-09-09T16:56:05;19.10;99.90
23597;DHT22;40226;50.874;4.394;2022-09-09T16:58:31;19.30;99.90
23597;DHT22;40226;50.874;4.394;2022-09-09T17:00:58;19.30;99.90
23597;DHT22;40226;50.874;4.394;2022-09-09T17:03:24;19.30;99.90
23597;DHT22;40226;50.874;4.394;2022-09-09T17:05:49;19.30;99.90
23597;DHT22;40226;50.874;4.394;2022-09-09T17:08:16;19.30;99.90
23597;DHT22;40226;50.874;4.394;2022-09-09T17:10:42;19.30;99.90
23597;DHT22;40226;50.874;4.394;2022-09-09T17:13:07;19.20;99.90
23597;DHT22;40226;50.874;4.394;2022-09-09T17:15:33;19.40;99.90
23597;DHT22;40226;50.874;4.394;2022-09-09T17:18:03;19.30;99.90
23597;DHT22;40226;50.874;4.394;2022-09-09T17:20:29;19.00;99.90
23597;DHT22;40226;50.874;4.394;2022-09-09T17:22:55;19.10;99.90
23597;DHT22;40226;50.874;4.394;2022-09-09T17:25:20;19.00;99.90
23597;DHT22;40226;50.874;4.394;2022-09-09T17:27:47;18.90;99.90
23597;DHT22;40226;50.874;4.394;2022-09-09T17:30:13;18.90;99.90
23597;DHT22;40226;50.874;4.394;2022-09-09T17:32:41;18.90;99.90
23597;DHT22;40226;50.874;4.394;2022-09-09T17:35:07;18.80;99.90
23597;DHT22;40226;50.874;4.394;2022-09-09T17:37:33;18.60;99.90
23597;DHT22;40226;50.874;4.394;2022-09-09T17:39:58;18.50;99.90
23597;DHT22;40226;50.874;4.394;2022-09-09T17:42:24;18.50;99.90
23597;DHT22;40226;50.874;4.394;2022-09-09T17:44:50;18.50;99.90
23597;DHT22;40226;50.874;4.394;2022-09-09T17:47:15;18.50;99.90
23597;DHT22;40226;50.874;4.394;2022-09-09T17:49:41;18.50;99.90
23597;DHT22;40226;50.874;4.394;2022-09-09T17:52:07;18.40;99.90
23597;DHT22;40226;50.874;4.394;2022-09-09T17:54:32;18.30;99.90
23597;DHT22;40226;50.874;4.394;2022-09-09T17:56:58;18.20;99.90
23597;DHT22;40226;50.874;4.394;2022-09-09T17:59:24;18.20;99.90
23597;DHT22;40226;50.874;4.394;2022-09-09T18:01:50;18.20;99.90
23597;DHT22;40226;50.874;4.394;2022-09-09T18:04:18;18.20;99.90
23597;DHT22;40226;50.874;4.394;2022-09-09T18:06:49;18.10;99.90
23597;DHT22;40226;50.874;4.394;2022-09-09T18:09:20;18.00;99.90
23597;DHT22;40226;50.874;4.394;2022-09-09T18:11:49;18.00;99.90
23597;DHT22;40226;50.874;4.394;2022-09-09T18:14:21;18.00;99.90
23597;DHT22;40226;50.874;4.394;2022-09-09T18:16:47;18.00;99.90